Time;durP1;ratioP1;P1;durP2;ratioP2;P2;SDS_P1;SDS_P2;PMS_P1;PMS_P2;Temp;Humidity;BMP_temperature;BMP_pressure;BME280_temperature;BME280_humidity;BME280_pressure;Samples;Min_cycle;Max_cycle;Signal;HPM_P1;HPM_P2
2021/09/25 00:00:01;;;;;;;9.17;7.43;;;18.00;99.90;;;;;;6184204;23;20776;-73
2021/09/25 00:02:28;;;;;;;10.07;6.33;;;18.00;99.90;;;;;;6183280;23;20427;-73
2021/09/25 00:04:57;;;;;;;8.13;5.97;;;18.00;99.90;;;;;;6184014;23;20407;-74
2021/09/25 00:07:24;;;;;;;7.57;6.87;;;18.10;99.90;;;;;;6185069;23;20519;-73
2021/09/25 00:09:51;;;;;;;6.80;6.10;;;18.10;99.90;;;;;;6184693;23;20730;-74
2021/09/25 00:12:19;;;;;;;11.63;5.93;;;18.10;99.90;;;;;;6184463;23;20434;-74
2021/09/25 00:14:46;;;;;;;9.33;6.47;;;18.10;99.90;;;;;;6184456;23;20403;-74
2021/09/25 00:17:14;;;;;;;12.23;6.27;;;18.10;99.90;;;;;;6184109;23;20467;-73
2021/09/25 00:19:43;;;;;;;12.27;6.03;;;18.10;99.90;;;;;;6184130;23;20424;-74
2021/09/25 00:22:11;;;;;;;7.80;7.10;;;18.10;99.90;;;;;;6183749;23;20777;-74
2021/09/25 00:24:39;;;;;;;9.23;6.57;;;18.10;99.90;;;;;;6184469;23;20388;-73
2021/09/25 00:27:06;;;;;;;8.53;5.97;;;18.00;99.90;;;;;;6183329;23;20387;-73
2021/09/25 00:29:33;;;;;;;8.63;6.50;;;18.00;99.90;;;;;;6184685;23;20403;-73
2021/09/25 00:32:01;;;;;;;9.00;6.73;;;18.00;99.90;;;;;;6183770;23;20441;-73
2021/09/25 00:34:29;;;;;;;10.60;7.90;;;18.00;99.90;;;;;;6184499;23;20396;-73
2021/09/25 00:36:56;;;;;;;8.13;6.70;;;17.90;99.90;;;;;;6183650;23;20392;-74
2021/09/25 00:39:25;;;;;;;9.10;6.57;;;17.90;99.90;;;;;;6184650;23;20395;-73
2021/09/25 00:41:53;;;;;;;12.17;8.60;;;17.80;99.90;;;;;;6184141;23;20430;-73
2021/09/25 00:44:21;;;;;;;8.00;7.20;;;17.70;99.90;;;;;;6183035;23;20395;-74
2021/09/25 00:46:48;;;;;;;13.50;8.37;;;17.70;99.90;;;;;;6183435;23;20396;-72
2021/09/25 00:49:19;;;;;;;9.73;7.20;;;17.70;99.90;;;;;;6184156;23;20541;-75
2021/09/25 00:51:46;;;;;;;8.20;7.00;;;17.60;99.90;;;;;;6183321;23;20752;-73
2021/09/25 00:54:13;;;;;;;13.13;8.20;;;17.60;99.90;;;;;;6184271;23;20241;-73
2021/09/25 00:56:44;;;;;;;15.67;8.80;;;17.60;99.90;;;;;;6183828;23;20393;-72
2021/09/25 00:59:12;;;;;;;9.80;7.23;;;17.50;99.90;;;;;;6183472;23;20450;-73
2021/09/25 01:01:41;;;;;;;19.83;9.80;;;17.50;99.90;;;;;;6183491;23;20498;-73
2021/09/25 01:04:08;;;;;;;8.40;7.60;;;17.40;99.90;;;;;;6185099;23;20405;-75
2021/09/25 01:06:37;;;;;;;14.03;8.00;;;17.50;99.90;;;;;;6183485;23;20394;-72
2021/09/25 01:09:05;;;;;;;12.40;9.33;;;17.50;99.90;;;;;;6183929;23;20953;-73
2021/09/25 01:11:32;;;;;;;13.83;8.20;;;17.40;99.90;;;;;;6184555;23;20431;-74
2021/09/25 01:14:01;;;;;;;8.73;7.88;;;17.30;99.90;;;;;;6183854;23;20419;-74
2021/09/25 01:16:29;;;;;;;14.17;8.93;;;17.30;99.90;;;;;;6183086;23;20578;-73
2021/09/25 01:18:56;;;;;;;14.40;7.80;;;17.30;99.90;;;;;;6184669;23;20720;-73
2021/09/25 01:21:25;;;;;;;9.83;8.83;;;17.30;99.90;;;;;;6184482;23;20400;-72
2021/09/25 01:23:52;;;;;;;12.13;9.82;;;17.30;99.90;;;;;;6185937;23;20394;-73
2021/09/25 01:26:20;;;;;;;7.73;6.90;;;17.30;99.90;;;;;;6184846;23;20629;-73
2021/09/25 01:28:49;;;;;;;10.17;8.00;;;17.30;99.90;;;;;;6186059;23;20430;-73
2021/09/25 01:31:17;;;;;;;9.87;8.30;;;17.30;99.90;;;;;;6185448;23;20391;-73
2021/09/25 01:33:47;;;;;;;10.97;7.83;;;17.30;99.90;;;;;;6185567;23;20888;-73
2021/09/25 01:36:16;;;;;;;9.67;7.37;;;17.20;99.90;;;;;;6185374;23;20395;-74
2021/09/25 01:38:45;;;;;;;9.50;7.80;;;17.20;99.90;;;;;;6186055;23;20716;-73
2021/09/25 01:41:13;;;;;;;9.33;8.43;;;17.20;99.90;;;;;;6185469;23;20503;-72
2021/09/25 01:43:41;;;;;;;10.70;7.20;;;17.20;99.90;;;;;;6185731;23;20399;-73
2021/09/25 01:46:08;;;;;;;9.35;6.80;;;17.20;99.90;;;;;;6184884;23;20174;-73
2021/09/25 01:48:35;;;;;;;9.65;6.68;;;17.20;99.90;;;;;;6185033;23;20200;-74
2021/09/25 01:51:26;;;;;;;8.07;6.03;;;17.30;99.90;;;;;;6185692;23;20170;-72
2021/09/25 01:53:55;;;;;;;8.37;7.20;;;17.30;99.90;;;;;;6185745;23;20228;-72
2021/09/25 01:56:22;;;;;;;8.83;7.40;;;17.30;99.90;;;;;;6184651;23;20424;-74
2021/09/25 01:58:49;;;;;;;12.43;8.73;;;17.30;99.90;;;;;;6185570;23;20769;-73
2021/09/25 02:01:17;;;;;;;15.20;8.47;;;17.30;99.90;;;;;;6185460;23;20407;-74
2021/09/25 02:03:44;;;;;;;15.13;8.13;;;17.30;99.90;;;;;;6185012;23;20427;-73
2021/09/25 02:06:12;;;;;;;12.45;8.30;;;17.20;99.90;;;;;;6185172;23;20738;-73
2021/09/25 02:08:41;;;;;;;10.05;7.55;;;17.20;99.90;;;;;;6185352;23;20186;-74
2021/09/25 02:11:10;;;;;;;10.20;7.43;;;17.10;99.90;;;;;;6185418;23;20596;-73
2021/09/25 02:13:37;;;;;;;17.00;8.32;;;17.10;99.90;;;;;;6185435;23;20477;-74
2021/09/25 02:16:05;;;;;;;9.98;7.55;;;17.10;99.90;;;;;;6184127;23;20246;-74
2021/09/25 02:18:33;;;;;;;9.70;6.72;;;17.10;99.90;;;;;;6185462;23;20194;-72
2021/09/25 02:21:00;;;;;;;13.20;7.65;;;17.10;99.90;;;;;;6185203;23;20168;-73
2021/09/25 02:23:27;;;;;;;11.70;8.30;;;17.10;99.90;;;;;;6185828;23;20205;-72
2021/09/25 02:25:54;;;;;;;29.98;22.48;;;17.10;99.90;;;;;;6184034;23;20173;-72
2021/09/25 02:28:23;;;;;;;9.07;8.00;;;17.20;99.90;;;;;;6185567;23;20661;-72
2021/09/25 02:30:51;;;;;;;12.85;8.68;;;17.10;99.90;;;;;;6183210;23;20495;-73
2021/09/25 02:33:18;;;;;;;18.92;8.68;;;17.10;99.90;;;;;;6184707;23;20201;-73
2021/09/25 02:35:45;;;;;;;8.73;7.68;;;17.10;99.90;;;;;;6185098;23;20164;-74
2021/09/25 02:38:13;;;;;;;13.23;7.97;;;17.00;99.90;;;;;;6185111;23;20166;-73
2021/09/25 02:40:40;;;;;;;10.52;8.07;;;17.00;99.90;;;;;;6185190;23;20623;-74
2021/09/25 02:43:08;;;;;;;11.10;9.00;;;17.00;99.90;;;;;;6185120;23;20209;-73
2021/09/25 02:45:37;;;;;;;13.50;9.27;;;16.90;99.90;;;;;;6184844;23;20178;-74
2021/09/25 02:48:05;;;;;;;10.23;8.38;;;16.90;99.90;;;;;;6184915;23;20509;-72
2021/09/25 02:50:33;;;;;;;8.93;7.38;;;16.90;99.90;;;;;;6184652;23;20190;-72
2021/09/25 02:53:00;;;;;;;12.82;8.45;;;16.90;99.90;;;;;;6185607;23;20522;-72
2021/09/25 02:55:28;;;;;;;11.65;8.18;;;16.90;99.90;;;;;;6184309;23;20172;-74
2021/09/25 02:57:55;;;;;;;11.07;9.10;;;16.90;99.90;;;;;;6185673;23;20174;-73
2021/09/25 03:00:23;;;;;;;9.90;8.80;;;16.90;99.90;;;;;;6185167;23;20485;-72
2021/09/25 03:02:52;;;;;;;12.70;8.70;;;16.90;99.90;;;;;;6185123;23;20505;-73
2021/09/25 03:05:19;;;;;;;12.35;8.50;;;16.90;99.90;;;;;;6184789;23;20765;-74
2021/09/25 03:07:46;;;;;;;10.90;7.90;;;16.90;99.90;;;;;;6185465;23;20166;-75
2021/09/25 03:10:14;;;;;;;20.13;9.45;;;16.90;99.90;;;;;;6185638;23;20170;-73
2021/09/25 03:12:41;;;;;;;18.25;9.05;;;16.90;99.90;;;;;;6184773;23;20284;-75
2021/09/25 03:15:10;;;;;;;12.98;8.90;;;16.90;99.90;;;;;;6183818;23;20481;-75
2021/09/25 03:17:37;;;;;;;10.85;8.73;;;16.90;99.90;;;;;;6183906;23;20469;-74
2021/09/25 03:20:08;;;;;;;14.43;9.48;;;16.90;99.90;;;;;;6185078;23;20161;-73
2021/09/25 03:22:35;;;;;;;13.68;8.73;;;17.00;99.90;;;;;;6185252;23;20530;-74
2021/09/25 03:25:07;;;;;;;10.65;8.75;;;17.00;99.90;;;;;;6184741;23;20168;-73
2021/09/25 03:27:36;;;;;;;10.40;9.40;;;16.90;99.90;;;;;;6185144;23;20162;-74
2021/09/25 03:30:04;;;;;;;16.60;10.18;;;17.00;99.90;;;;;;6184961;23;20543;-74
2021/09/25 03:32:31;;;;;;;17.30;8.15;;;17.00;99.90;;;;;;6185121;23;20197;-74
2021/09/25 03:34:59;;;;;;;11.97;8.20;;;17.00;99.90;;;;;;6184336;23;20169;-74
2021/09/25 03:37:27;;;;;;;14.53;9.47;;;17.00;99.90;;;;;;6184387;23;20929;-73
2021/09/25 03:39:54;;;;;;;11.63;7.90;;;17.10;99.90;;;;;;6185129;23;20388;-73
2021/09/25 03:42:22;;;;;;;13.30;8.10;;;17.10;99.90;;;;;;6185696;23;21077;-74
2021/09/25 03:44:50;;;;;;;14.40;10.77;;;17.10;99.90;;;;;;6187213;23;20166;-74
2021/09/25 03:47:28;;;;;;;12.73;9.52;;;17.10;99.90;;;;;;6187368;23;20244;-73
2021/09/25 03:50:02;;;;;;;10.30;8.18;;;17.10;99.90;;;;;;6188731;23;20213;-74
2021/09/25 03:52:31;;;;;;;11.27;8.90;;;17.10;99.90;;;;;;6189139;23;20203;-74
2021/09/25 03:55:07;;;;;;;11.07;8.05;;;17.10;99.90;;;;;;6191127;23;20415;-73
2021/09/25 03:57:34;;;;;;;15.93;9.33;;;17.10;99.90;;;;;;6192897;23;20175;-75
2021/09/25 04:00:01;;;;;;;12.57;8.65;;;17.10;99.90;;;;;;6193176;23;20387;-74
2021/09/25 04:02:28;;;;;;;10.60;9.50;;;17.10;99.90;;;;;;6194332;23;20253;-73
2021/09/25 04:04:56;;;;;;;13.00;9.67;;;17.10;99.90;;;;;;6193843;23;20402;-73
2021/09/25 04:07:23;;;;;;;11.15;8.10;;;17.10;99.90;;;;;;6191795;23;20398;-73
2021/09/25 04:09:51;;;;;;;14.30;9.70;;;17.10;99.90;;;;;;6191845;23;20203;-74
2021/09/25 04:12:18;;;;;;;15.85;9.30;;;17.10;99.90;;;;;;6187311;23;20437;-73
2021/09/25 04:14:47;;;;;;;12.13;9.25;;;17.20;99.90;;;;;;6188958;23;20160;-74
2021/09/25 04:17:14;;;;;;;12.33;8.53;;;17.20;99.90;;;;;;6184390;23;20176;-74
2021/09/25 04:19:41;;;;;;;9.27;8.32;;;17.20;99.90;;;;;;6185245;23;20395;-73
2021/09/25 04:22:08;;;;;;;13.57;9.63;;;17.20;99.90;;;;;;6184914;23;20282;-73
2021/09/25 04:24:35;;;;;;;12.68;9.52;;;17.10;99.90;;;;;;6184669;23;20666;-73
2021/09/25 04:27:04;;;;;;;19.60;9.45;;;17.20;99.90;;;;;;6184017;23;20168;-72
2021/09/25 04:29:31;;;;;;;14.43;10.00;;;17.20;99.90;;;;;;6184546;23;20198;-72
2021/09/25 04:31:58;;;;;;;15.52;10.15;;;17.20;99.90;;;;;;6184373;23;20278;-73
2021/09/25 04:34:26;;;;;;;20.73;12.73;;;17.20;99.90;;;;;;6185090;23;20169;-73
2021/09/25 04:36:53;;;;;;;23.57;9.73;;;17.20;99.90;;;;;;6183626;23;20407;-72
2021/09/25 04:39:20;;;;;;;12.47;9.70;;;17.20;99.90;;;;;;6184965;23;20395;-74
2021/09/25 04:41:47;;;;;;;15.43;10.25;;;17.10;99.90;;;;;;6184245;23;20953;-74
2021/09/25 04:44:16;;;;;;;20.83;11.50;;;17.10;99.90;;;;;;6184714;23;20183;-74
2021/09/25 04:46:44;;;;;;;24.10;11.68;;;17.10;99.90;;;;;;6184258;23;20397;-73
2021/09/25 04:49:12;;;;;;;14.65;11.65;;;17.10;99.90;;;;;;6184885;23;20532;-73
2021/09/25 04:51:39;;;;;;;21.77;12.80;;;17.10;99.90;;;;;;6184963;23;20203;-74
2021/09/25 04:54:06;;;;;;;16.87;12.00;;;17.20;99.90;;;;;;6185140;23;20169;-73
2021/09/25 04:56:35;;;;;;;16.75;11.57;;;17.20;99.90;;;;;;6184669;23;20616;-73
2021/09/25 04:59:02;;;;;;;18.05;11.93;;;17.20;99.90;;;;;;6185917;23;20162;-74
2021/09/25 05:01:32;;;;;;;20.03;11.37;;;17.20;99.90;;;;;;6185931;23;20685;-73
2021/09/25 05:04:01;;;;;;;16.67;12.30;;;17.30;99.90;;;;;;6186170;23;20859;-74
2021/09/25 05:06:29;;;;;;;15.50;12.03;;;17.30;99.90;;;;;;6186218;23;20164;-74
2021/09/25 05:08:56;;;;;;;18.80;13.30;;;17.30;99.90;;;;;;6186716;23;20517;-73
2021/09/25 05:11:25;;;;;;;16.63;14.90;;;17.30;99.90;;;;;;6186543;23;20395;-74
2021/09/25 05:13:52;;;;;;;20.30;15.37;;;17.30;99.90;;;;;;6186730;23;20168;-73
2021/09/25 05:16:20;;;;;;;22.30;14.87;;;17.30;99.90;;;;;;6185767;23;20394;-73
2021/09/25 05:18:48;;;;;;;27.03;16.63;;;17.20;99.90;;;;;;6187139;23;20387;-72
2021/09/25 05:21:15;;;;;;;21.83;15.53;;;17.20;99.90;;;;;;6186668;23;20402;-73
2021/09/25 05:23:42;;;;;;;20.73;16.17;;;17.20;99.90;;;;;;6186607;23;20410;-73
2021/09/25 05:26:10;;;;;;;26.77;17.90;;;17.20;99.90;;;;;;6185788;23;20407;-73
2021/09/25 05:28:38;;;;;;;22.90;18.87;;;17.20;99.90;;;;;;6186516;23;20871;-73
2021/09/25 05:31:06;;;;;;;28.57;17.13;;;17.20;99.90;;;;;;6186186;23;20410;-74
2021/09/25 05:33:34;;;;;;;35.42;23.67;;;17.20;99.90;;;;;;6186251;23;20437;-74
2021/09/25 05:36:03;;;;;;;24.42;16.02;;;17.20;99.90;;;;;;6186024;23;20162;-73
2021/09/25 05:38:30;;;;;;;25.73;17.48;;;17.10;99.90;;;;;;6186490;23;20468;-74
2021/09/25 05:40:57;;;;;;;27.33;20.10;;;17.10;99.90;;;;;;6186051;23;20164;-74
2021/09/25 05:43:24;;;;;;;24.90;20.00;;;17.10;99.90;;;;;;6186219;23;20204;-74
2021/09/25 05:45:51;;;;;;;31.30;23.20;;;17.10;99.90;;;;;;6186113;23;20226;-74
2021/09/25 05:48:19;;;;;;;25.17;19.70;;;17.10;99.90;;;;;;6186476;23;20436;-74
2021/09/25 05:50:46;;;;;;;35.03;22.10;;;17.10;99.90;;;;;;6185961;23;20453;-74
2021/09/25 05:53:15;;;;;;;32.57;20.10;;;17.10;99.90;;;;;;6186629;23;20430;-76
2021/09/25 05:55:43;;;;;;;33.13;22.70;;;17.10;99.90;;;;;;6185642;23;20399;-74
2021/09/25 05:58:10;;;;;;;29.20;20.50;;;17.10;99.90;;;;;;6186118;23;20395;-74
2021/09/25 06:00:37;;;;;;;37.25;24.27;;;17.10;99.90;;;;;;6186167;23;20160;-74
2021/09/25 06:03:04;;;;;;;37.08;26.75;;;17.10;99.90;;;;;;6186536;23;20201;-74
2021/09/25 06:05:32;;;;;;;44.30;29.13;;;17.20;99.90;;;;;;6185571;23;20171;-74
2021/09/25 06:08:01;;;;;;;38.43;28.23;;;17.20;99.90;;;;;;6186274;23;20394;-73
2021/09/25 06:10:30;;;;;;;36.70;21.40;;;17.20;99.90;;;;;;6185331;23;20434;-74
2021/09/25 06:12:57;;;;;;;27.70;20.33;;;17.20;99.90;;;;;;6185695;23;20907;-73
2021/09/25 06:15:24;;;;;;;32.95;21.25;;;17.20;99.90;;;;;;6185425;23;20165;-74
2021/09/25 06:17:52;;;;;;;33.35;21.63;;;17.20;99.90;;;;;;6185935;23;20272;-73
2021/09/25 06:20:19;;;;;;;31.95;20.48;;;17.20;99.90;;;;;;6185609;23;20175;-73
2021/09/25 06:22:46;;;;;;;32.67;21.37;;;17.20;99.90;;;;;;6185643;23;20200;-74
2021/09/25 06:25:13;;;;;;;31.73;21.37;;;17.20;99.90;;;;;;6185187;23;20722;-73
2021/09/25 06:27:42;;;;;;;31.97;21.77;;;17.30;99.90;;;;;;6186261;23;20405;-73
2021/09/25 06:30:10;;;;;;;31.77;21.30;;;17.30;99.90;;;;;;6186415;23;20437;-74
2021/09/25 06:32:38;;;;;;;33.07;21.70;;;17.30;99.90;;;;;;6185196;23;20434;-75
2021/09/25 06:35:07;;;;;;;27.55;20.83;;;17.40;99.90;;;;;;6184041;23;20390;-76
2021/09/25 06:37:34;;;;;;;35.00;20.17;;;17.40;99.90;;;;;;6185445;23;20168;-72
2021/09/25 06:40:01;;;;;;;28.27;19.90;;;17.50;99.90;;;;;;6187613;23;20493;-75
2021/09/25 06:42:29;;;;;;;33.97;20.70;;;17.60;99.90;;;;;;6186590;23;20199;-75
2021/09/25 06:44:58;;;;;;;31.23;20.50;;;17.60;99.90;;;;;;6186774;23;20403;-73
2021/09/25 06:47:25;;;;;;;26.30;17.90;;;17.70;99.90;;;;;;6186102;23;20405;-73
2021/09/25 06:49:53;;;;;;;25.23;20.07;;;17.70;99.90;;;;;;6185011;23;20446;-72
2021/09/25 06:52:20;;;;;;;30.83;19.67;;;17.70;99.90;;;;;;6185208;23;20432;-73
2021/09/25 06:54:47;;;;;;;27.00;18.70;;;17.70;99.90;;;;;;6185698;23;20401;-72
2021/09/25 06:57:14;;;;;;;26.73;20.47;;;17.80;99.90;;;;;;6184662;23;20396;-73
2021/09/25 06:59:41;;;;;;;25.03;19.63;;;17.90;99.90;;;;;;6185703;23;20398;-73
2021/09/25 07:02:10;;;;;;;27.50;19.03;;;18.00;99.90;;;;;;6184769;23;20430;-72
2021/09/25 07:04:37;;;;;;;27.53;19.73;;;18.00;99.90;;;;;;6186548;23;20402;-76
2021/09/25 07:07:04;;;;;;;25.47;18.27;;;18.00;99.90;;;;;;6184760;23;20403;-73
2021/09/25 07:09:31;;;;;;;21.37;18.63;;;18.00;99.90;;;;;;6184838;23;20442;-73
2021/09/25 07:11:58;;;;;;;27.17;20.13;;;18.10;99.90;;;;;;6184702;23;20437;-73
2021/09/25 07:14:26;;;;;;;25.73;18.13;;;18.20;99.90;;;;;;6184695;23;20406;-74
2021/09/25 07:16:53;;;;;;;23.40;16.57;;;18.40;99.90;;;;;;6184606;23;20472;-75
2021/09/25 07:19:22;;;;;;;25.50;18.23;;;18.60;99.90;;;;;;6184646;23;20713;-74
2021/09/25 07:21:49;;;;;;;20.97;17.10;;;18.80;99.90;;;;;;6184797;23;20426;-76
2021/09/25 07:24:17;;;;;;;18.70;15.13;;;19.10;99.90;;;;;;6186744;23;20388;-75
2021/09/25 07:26:44;;;;;;;23.67;15.73;;;19.70;99.90;;;;;;6186450;23;20427;-74
2021/09/25 07:29:12;;;;;;;21.23;14.30;;;20.40;99.90;;;;;;6185316;23;20482;-74
2021/09/25 07:31:39;;;;;;;16.67;12.27;;;21.60;99.90;;;;;;6182772;23;20440;-76
2021/09/25 07:34:07;;;;;;;17.97;13.33;;;22.90;99.90;;;;;;6184439;23;20396;-76
2021/09/25 07:36:35;;;;;;;17.80;13.47;;;24.00;99.90;;;;;;6183836;23;20403;-74
2021/09/25 07:39:03;;;;;;;17.77;14.20;;;24.10;99.90;;;;;;6184965;23;20387;-72
2021/09/25 07:41:30;;;;;;;17.93;13.83;;;23.40;99.90;;;;;;6184263;23;20434;-74
2021/09/25 07:43:58;;;;;;;20.33;15.97;;;22.70;99.90;;;;;;6185097;23;20882;-73
2021/09/25 07:46:25;;;;;;;23.50;13.13;;;21.70;99.90;;;;;;6184961;23;20401;-75
2021/09/25 07:48:52;;;;;;;28.63;16.53;;;21.20;99.90;;;;;;6184578;23;20493;-76
2021/09/25 07:51:19;;;;;;;19.57;16.40;;;21.20;99.90;;;;;;6184547;23;20423;-75
2021/09/25 07:53:49;;;;;;;16.90;14.27;;;20.90;99.90;;;;;;6184791;23;20389;-76
2021/09/25 07:56:16;;;;;;;27.80;16.77;;;20.80;99.90;;;;;;6184668;23;20395;-75
2021/09/25 07:58:43;;;;;;;17.80;14.77;;;20.70;99.90;;;;;;6185419;23;20403;-75
2021/09/25 08:01:11;;;;;;;20.50;16.27;;;20.60;99.90;;;;;;6184886;23;20402;-74
2021/09/25 08:03:43;;;;;;;18.03;13.53;;;20.70;99.90;;;;;;6185339;23;20869;-76
2021/09/25 08:06:10;;;;;;;24.47;17.20;;;21.00;99.90;;;;;;6184463;23;20397;-78
2021/09/25 08:08:37;;;;;;;22.23;13.43;;;21.10;99.90;;;;;;6185524;23;20395;-76
2021/09/25 08:11:06;;;;;;;20.67;13.07;;;21.10;99.90;;;;;;6185926;23;20526;-75
2021/09/25 08:13:34;;;;;;;21.17;13.80;;;21.40;99.90;;;;;;6185244;23;20431;-76
2021/09/25 08:16:01;;;;;;;14.77;12.13;;;21.60;99.90;;;;;;6183908;23;20423;-75
2021/09/25 08:18:28;;;;;;;16.70;13.77;;;22.10;99.90;;;;;;6185589;23;20396;-76
2021/09/25 08:20:56;;;;;;;18.67;13.77;;;22.30;99.90;;;;;;6185721;23;20722;-77
2021/09/25 08:23:24;;;;;;;15.10;13.20;;;22.50;99.90;;;;;;6186091;23;20435;-74
2021/09/25 08:25:53;;;;;;;18.20;14.10;;;22.60;99.90;;;;;;6185229;23;20721;-79
2021/09/25 08:28:22;;;;;;;16.03;14.17;;;22.40;99.90;;;;;;6185707;23;20383;-76
2021/09/25 08:30:49;;;;;;;17.77;13.10;;;22.30;99.90;;;;;;6185010;23;20818;-75
2021/09/25 08:33:16;;;;;;;15.40;12.53;;;22.30;99.90;;;;;;6184818;23;20428;-78
2021/09/25 08:35:43;;;;;;;17.13;13.63;;;22.50;99.90;;;;;;6184536;23;20381;-76
2021/09/25 08:38:10;;;;;;;17.87;14.30;;;22.50;99.90;;;;;;6187328;23;20466;-76
2021/09/25 08:40:38;;;;;;;22.10;15.60;;;22.30;99.90;;;;;;6187273;23;20419;-78
2021/09/25 08:43:11;;;;;;;18.30;13.47;;;21.90;99.90;;;;;;6189899;23;20791;-76
2021/09/25 08:45:40;;;;;;;25.53;14.63;;;22.10;99.90;;;;;;6184754;23;20399;-78
2021/09/25 08:48:08;;;;;;;19.27;12.50;;;22.60;99.90;;;;;;6185531;23;20393;-79
2021/09/25 08:50:35;;;;;;;15.10;13.00;;;22.90;99.90;;;;;;6185021;23;20451;-78
2021/09/25 08:53:03;;;;;;;17.73;14.07;;;23.10;99.90;;;;;;6185882;23;20432;-77
2021/09/25 08:55:30;;;;;;;17.53;13.30;;;22.70;99.90;;;;;;6185261;23;20717;-76
2021/09/25 08:57:58;;;;;;;16.23;12.57;;;22.10;99.90;;;;;;6185486;23;20388;-77
2021/09/25 09:00:36;;;;;;;15.67;12.10;;;22.30;99.90;;;;;;6186057;23;20466;-74
2021/09/25 09:03:27;;;;;;;18.40;11.93;;;23.30;99.90;;;;;;6191023;23;20484;-76
2021/09/25 09:06:03;;;;;;;17.30;13.10;;;24.10;99.90;;;;;;6185989;23;20442;-77
2021/09/25 09:08:31;;;;;;;15.73;12.53;;;24.40;99.90;;;;;;6186037;23;20890;-77
2021/09/25 09:10:58;;;;;;;14.43;11.23;;;24.50;99.90;;;;;;6185898;23;20634;-79
2021/09/25 09:13:27;;;;;;;12.67;11.10;;;24.90;99.90;;;;;;6185474;23;20696;-78
2021/09/25 09:15:54;;;;;;;13.33;11.30;;;25.20;99.90;;;;;;6185376;23;20460;-76
2021/09/25 09:18:24;;;;;;;14.03;10.97;;;25.50;99.90;;;;;;6185101;23;20410;-78
2021/09/25 09:21:03;;;;;;;14.20;10.70;;;26.20;99.90;;;;;;6185689;23;20483;-77
2021/09/25 09:23:32;;;;;;;15.80;11.37;;;26.80;99.90;;;;;;6186242;23;20435;-75
2021/09/25 09:26:00;;;;;;;13.20;11.00;;;26.70;99.90;;;;;;6187022;23;20394;-77
2021/09/25 09:28:29;;;;;;;15.97;10.77;;;27.40;99.40;;;;;;6188964;23;20456;-77
2021/09/25 09:31:00;;;;;;;13.77;11.47;;;27.80;98.30;;;;;;6190467;23;20427;-79
2021/09/25 09:33:36;;;;;;;13.03;9.70;;;27.60;98.50;;;;;;6189888;23;20939;-78
2021/09/25 09:36:21;;;;;;;12.40;10.23;;;27.30;98.90;;;;;;6186721;23;20728;-76
2021/09/25 09:38:53;;;;;;;16.00;10.40;;;26.40;99.90;;;;;;6188419;23;20483;-77
2021/09/25 09:41:25;;;;;;;14.00;11.37;;;25.90;99.90;;;;;;6190997;23;20395;-75
2021/09/25 09:43:55;;;;;;;10.47;9.37;;;25.20;99.90;;;;;;6193286;23;20419;-76
2021/09/25 09:46:28;;;;;;;12.53;11.20;;;25.10;99.90;;;;;;6189285;23;20405;-76
2021/09/25 09:48:57;;;;;;;13.23;9.77;;;25.10;99.90;;;;;;6188920;23;20411;-78
2021/09/25 09:51:39;;;;;;;11.50;10.37;;;24.80;99.90;;;;;;6188095;23;20432;-77
2021/09/25 09:54:21;;;;;;;20.07;12.00;;;24.40;99.90;;;;;;6188373;23;20396;-81
2021/09/25 09:56:50;;;;;;;13.63;11.10;;;23.80;99.90;;;;;;6187529;23;20402;-79
2021/09/25 09:59:17;;;;;;;13.10;10.03;;;23.70;99.90;;;;;;6188135;23;20525;-77
2021/09/25 10:01:45;;;;;;;11.70;10.60;;;23.60;99.90;;;;;;6186714;23;20424;-77
2021/09/25 10:04:14;;;;;;;12.30;10.87;;;23.50;99.90;;;;;;6187742;23;20392;-79
2021/09/25 10:06:42;;;;;;;13.37;11.10;;;23.30;99.90;;;;;;6187065;23;20734;-80
2021/09/25 10:09:12;;;;;;;14.20;9.53;;;23.20;99.90;;;;;;6187373;23;20406;-77
2021/09/25 10:11:40;;;;;;;12.07;9.67;;;23.50;99.90;;;;;;6187244;23;20935;-80
2021/09/25 10:14:09;;;;;;;9.83;7.93;;;23.80;99.90;;;;;;6187060;23;20454;-78
2021/09/25 10:16:36;;;;;;;12.83;9.20;;;24.10;99.90;;;;;;6187242;23;20758;-79
2021/09/25 10:19:15;;;;;;;9.23;8.20;;;24.30;99.90;;;;;;6188228;23;20395;-76
2021/09/25 10:21:43;;;;;;;13.90;9.50;;;24.40;99.90;;;;;;6188362;23;20479;-77
2021/09/25 10:24:15;;;;;;;14.67;10.60;;;24.20;99.90;;;;;;6189889;23;20756;-77
2021/09/25 10:26:45;;;;;;;11.80;9.00;;;23.70;99.90;;;;;;6190799;23;20392;-80
2021/09/25 10:29:19;;;;;;;16.90;9.27;;;23.90;99.90;;;;;;6189140;23;20399;-80
2021/09/25 10:31:47;;;;;;;17.73;8.10;;;23.80;99.90;;;;;;6187752;23;20454;-82
2021/09/25 10:34:19;;;;;;;12.17;8.53;;;23.70;99.90;;;;;;6187159;23;20398;-81
2021/09/25 10:36:50;;;;;;;12.80;9.70;;;23.50;99.90;;;;;;6192188;23;20427;-78
2021/09/25 10:39:30;;;;;;;11.27;8.57;;;23.50;99.90;;;;;;6195241;23;20396;-77
2021/09/25 10:42:00;;;;;;;13.33;9.70;;;23.50;99.90;;;;;;6194393;23;20474;-76
2021/09/25 10:44:29;;;;;;;9.53;8.47;;;23.30;99.90;;;;;;6194477;23;20403;-76
2021/09/25 10:47:10;;;;;;;12.37;9.30;;;23.60;99.90;;;;;;6188111;23;20392;-82
2021/09/25 10:49:57;;;;;;;11.37;8.60;;;23.90;99.90;;;;;;6188057;23;20522;-78
2021/09/25 10:52:43;;;;;;;8.40;7.60;;;24.00;99.90;;;;;;6188070;23;20452;-76
2021/09/25 10:55:25;;;;;;;7.63;6.73;;;24.10;99.90;;;;;;6186075;23;20507;-81
2021/09/25 10:58:22;;;;;;;12.33;7.73;;;24.10;99.90;;;;;;6187334;23;20384;-78
2021/09/25 11:00:54;;;;;;;8.80;7.30;;;24.10;99.90;;;;;;6187592;23;20459;-79
2021/09/25 11:04:01;;;;;;;9.00;6.87;;;24.10;99.90;;;;;;6186695;23;20427;-78
2021/09/25 11:06:58;;;;;;;10.23;7.03;;;24.00;99.90;;;;;;6185545;23;20419;-78
2021/09/25 11:09:29;;;;;;;7.43;6.47;;;24.10;99.90;;;;;;6190702;23;20715;-78
2021/09/25 11:11:58;;;;;;;11.87;7.47;;;24.10;99.90;;;;;;6187868;23;20930;-78
2021/09/25 11:14:27;;;;;;;9.00;7.17;;;24.00;99.90;;;;;;6186666;23;20388;-78
2021/09/25 11:16:57;;;;;;;14.90;8.90;;;23.80;99.90;;;;;;6185439;23;20402;-78
2021/09/25 11:19:46;;;;;;;15.93;9.87;;;23.80;99.90;;;;;;6185925;23;20503;-78
2021/09/25 11:22:30;;;;;;;14.40;9.73;;;23.60;99.90;;;;;;6186267;23;20708;-79
2021/09/25 11:24:59;;;;;;;12.60;10.10;;;23.60;99.90;;;;;;6187474;23;20446;-78
2021/09/25 11:27:30;;;;;;;12.50;9.33;;;23.40;99.90;;;;;;6186318;23;20831;-78
2021/09/25 11:30:11;;;;;;;18.53;10.60;;;23.30;99.90;;;;;;6185741;23;20475;-78
2021/09/25 11:32:41;;;;;;;9.40;8.37;;;23.40;99.90;;;;;;6184813;23;20423;-77
2021/09/25 11:35:11;;;;;;;15.67;8.93;;;23.30;99.90;;;;;;6184866;23;20431;-76
2021/09/25 11:37:55;;;;;;;15.57;10.10;;;23.60;99.90;;;;;;6186506;23;20398;-78
2021/09/25 11:40:24;;;;;;;9.83;8.83;;;23.50;99.90;;;;;;6185619;23;20767;-79
2021/09/25 11:42:58;;;;;;;12.60;9.20;;;23.40;99.90;;;;;;6186263;23;20919;-78
2021/09/25 11:45:29;;;;;;;10.50;8.60;;;23.30;99.90;;;;;;6185870;23;20478;-78
2021/09/25 11:47:57;;;;;;;8.80;7.90;;;23.40;99.90;;;;;;6186536;23;20876;-78
2021/09/25 11:50:27;;;;;;;11.57;10.10;;;23.50;99.90;;;;;;6186306;23;20856;-80
2021/09/25 11:52:57;;;;;;;11.23;8.57;;;23.50;99.90;;;;;;6187031;23;20436;-77
2021/09/25 11:55:27;;;;;;;13.10;8.10;;;23.30;99.90;;;;;;6185403;23;20402;-78
2021/09/25 11:57:57;;;;;;;10.60;9.60;;;23.20;99.90;;;;;;6185832;23;20423;-78
2021/09/25 12:00:27;;;;;;;11.60;10.40;;;23.00;99.90;;;;;;6186232;23;20483;-76
2021/09/25 12:02:56;;;;;;;12.40;10.20;;;22.80;99.90;;;;;;6185995;23;20442;-79
2021/09/25 12:05:30;;;;;;;12.17;8.97;;;22.70;99.90;;;;;;6185128;23;20385;-78
2021/09/25 12:08:00;;;;;;;15.23;10.93;;;22.60;99.90;;;;;;6186220;23;20418;-79
2021/09/25 12:10:29;;;;;;;12.97;11.20;;;22.70;99.90;;;;;;6186077;23;20427;-77
2021/09/25 12:12:59;;;;;;;13.53;12.10;;;22.60;99.90;;;;;;6185660;23;21022;-80
2021/09/25 12:15:29;;;;;;;14.30;11.83;;;22.60;99.90;;;;;;6185745;23;20491;-79
2021/09/25 12:18:12;;;;;;;21.13;12.93;;;22.60;99.90;;;;;;6185932;23;20392;-78
2021/09/25 12:20:40;;;;;;;15.17;13.23;;;22.60;99.90;;;;;;6185206;23;20422;-77
2021/09/25 12:23:10;;;;;;;16.73;14.17;;;22.60;99.90;;;;;;6185932;23;20546;-78
2021/09/25 12:25:41;;;;;;;18.30;14.33;;;22.50;99.90;;;;;;6185256;23;20434;-79
2021/09/25 12:28:29;;;;;;;15.60;13.60;;;22.50;99.90;;;;;;6186800;23;20419;-78
2021/09/25 12:30:57;;;;;;;17.00;14.73;;;22.40;99.90;;;;;;6186635;23;20462;-78
2021/09/25 12:33:25;;;;;;;13.07;11.83;;;22.10;99.90;;;;;;6185532;23;20430;-77
2021/09/25 12:36:05;;;;;;;16.80;15.03;;;22.10;99.90;;;;;;6185547;23;20384;-78
2021/09/25 12:38:36;;;;;;;17.63;14.40;;;22.10;99.90;;;;;;6184949;23;20488;-76
2021/09/25 12:41:06;;;;;;;15.60;13.57;;;22.10;99.90;;;;;;6189781;23;20488;-76
2021/09/25 12:43:42;;;;;;;18.30;13.83;;;22.00;99.90;;;;;;6190327;23;20522;-78